createdAt,value
2023-03-28T00:00:35.259Z,21.48
2023-03-28T00:03:04.946Z,18.88
2023-03-28T00:05:34.662Z,16.05
2023-03-28T00:08:04.786Z,15.52
2023-03-28T00:10:34.561Z,19.38
2023-03-28T00:13:04.254Z,23.33
2023-03-28T00:15:34.039Z,25.35
2023-03-28T00:18:03.758Z,17.60
2023-03-28T00:20:33.823Z,18.30
2023-03-28T00:23:05.561Z,14.05
2023-03-28T00:25:42.077Z,20.85
2023-03-28T00:28:24.143Z,14.20
2023-03-28T00:30:57.048Z,20.15
2023-03-28T00:33:26.766Z,22.42
2023-03-28T00:35:58.444Z,22.80
2023-03-28T00:38:29.212Z,25.02
2023-03-28T00:41:22.897Z,19.15
2023-03-28T00:44:16.719Z,18.25
2023-03-28T00:47:07.439Z,20.42
2023-03-28T00:49:55.117Z,28.55
2023-03-28T00:52:34.148Z,19.52
2023-03-28T00:55:11.689Z,19.33
2023-03-28T00:58:33.721Z,17.42
2023-03-28T01:01:21.375Z,23.23
2023-03-28T01:04:18.836Z,22.10
2023-03-28T01:07:39.112Z,26.85
2023-03-28T01:10:40.620Z,21.98
2023-03-28T01:13:26.265Z,29.65
2023-03-28T01:16:06.715Z,18.05
2023-03-28T01:18:45.854Z,18.42
2023-03-28T01:22:01.431Z,23.63
2023-03-28T01:25:21.233Z,20.27
2023-03-28T01:28:19.727Z,17.98
2023-03-28T01:31:39.794Z,18.55
2023-03-28T01:34:20.287Z,17.80
2023-03-28T01:37:26.209Z,15.45
2023-03-28T01:40:02.697Z,14.93
2023-03-28T01:42:50.390Z,18.52
2023-03-28T01:45:36.406Z,18.13
2023-03-28T01:48:12.856Z,16.05
2023-03-28T01:50:59.388Z,19.17
2023-03-28T01:53:44.659Z,26.05
2023-03-28T01:56:28.202Z,22.23
2023-03-28T01:59:01.244Z,16.13
2023-03-28T02:01:50.987Z,18.15
2023-03-28T02:04:22.144Z,17.58
2023-03-28T02:06:52.175Z,16.85
2023-03-28T02:09:24.754Z,15.68
2023-03-28T02:11:58.351Z,14.32
2023-03-28T02:14:29.854Z,13.25
2023-03-28T02:17:02.151Z,14.95
2023-03-28T02:19:32.759Z,12.93
2023-03-28T02:22:17.890Z,13.80
2023-03-28T02:24:52.086Z,13.67
2023-03-28T02:27:24.080Z,14.75
2023-03-28T02:29:55.927Z,14.15
2023-03-28T02:32:25.778Z,12.13
2023-03-28T02:34:56.160Z,14.05
2023-03-28T02:37:50.569Z,14.82
2023-03-28T02:40:26.071Z,11.45
2023-03-28T02:43:25.859Z,12.68
2023-03-28T02:45:59.419Z,12.68
2023-03-28T02:49:16.540Z,13.88
2023-03-28T02:51:47.962Z,16.48
2023-03-28T02:54:27.960Z,13.30
2023-03-28T02:57:10.010Z,14.30
2023-03-28T02:59:50.211Z,13.38
2023-03-28T03:02:20.709Z,11.93
2023-03-28T03:05:02.142Z,10.32
2023-03-28T03:07:32.524Z,11.73
2023-03-28T03:10:02.349Z,12.32
2023-03-28T03:12:32.237Z,12.95
2023-03-28T03:15:02.676Z,11.10
2023-03-28T03:17:32.611Z,14.02
2023-03-28T03:20:08.646Z,16.25
2023-03-28T03:22:38.636Z,12.35
2023-03-28T03:25:13.796Z,13.60
2023-03-28T03:27:44.110Z,14.10
2023-03-28T03:30:16.598Z,13.82
2023-03-28T03:32:46.713Z,13.20
2023-03-28T03:35:16.516Z,13.95
2023-03-28T03:37:49.216Z,16.02
2023-03-28T03:40:19.841Z,12.48
2023-03-28T03:42:49.665Z,14.88
2023-03-28T03:45:19.486Z,12.75
2023-03-28T03:47:49.200Z,13.68
2023-03-28T03:50:22.252Z,14.85
2023-03-28T03:52:52.041Z,16.60
2023-03-28T03:55:22.363Z,12.90
2023-03-28T03:57:52.100Z,12.15
2023-03-28T04:00:22.015Z,11.90
2023-03-28T04:02:51.810Z,11.43
2023-03-28T04:05:21.565Z,14.13
2023-03-28T04:07:51.261Z,12.23
2023-03-28T04:10:20.967Z,14.95
2023-03-28T04:12:51.069Z,11.55
2023-03-28T04:15:20.864Z,12.80
2023-03-28T04:17:51.680Z,12.75
2023-03-28T04:20:22.524Z,12.23
2023-03-28T04:22:52.250Z,12.07
2023-03-28T04:25:22.192Z,13.10
2023-03-28T04:27:51.906Z,10.68
2023-03-28T04:30:21.679Z,10.73
2023-03-28T04:32:52.069Z,12.48
2023-03-28T04:35:25.832Z,13.80
2023-03-28T04:37:59.879Z,12.82
2023-03-28T04:40:29.681Z,12.38
2023-03-28T04:42:59.355Z,10.68
2023-03-28T04:45:29.118Z,11.35
2023-03-28T04:47:58.831Z,14.15
2023-03-28T04:50:28.510Z,13.57
2023-03-28T04:52:58.157Z,14.05
2023-03-28T04:55:27.806Z,14.00
2023-03-28T04:57:57.701Z,10.90
2023-03-28T05:00:27.673Z,15.82
2023-03-28T05:03:03.398Z,13.30
2023-03-28T05:05:33.832Z,12.25
2023-03-28T05:08:04.766Z,11.82
2023-03-28T05:10:34.468Z,12.40
2023-03-28T05:13:04.267Z,13.43
2023-03-28T05:15:34.051Z,12.00
2023-03-28T05:18:03.798Z,15.10
2023-03-28T05:20:34.081Z,13.55
2023-03-28T05:23:04.231Z,12.80
2023-03-28T05:25:34.035Z,15.93
2023-03-28T05:28:06.519Z,14.65
2023-03-28T05:30:36.462Z,12.80
2023-03-28T05:33:06.203Z,14.75
2023-03-28T05:35:35.880Z,13.20
2023-03-28T05:38:06.445Z,16.00
2023-03-28T05:40:36.095Z,15.40
2023-03-28T05:43:06.216Z,11.23
2023-03-28T05:45:35.958Z,13.23
2023-03-28T05:48:05.801Z,15.88
2023-03-28T05:50:35.612Z,12.63
2023-03-28T05:53:05.261Z,16.00
2023-03-28T05:55:35.878Z,14.63
2023-03-28T05:58:07.905Z,12.77
2023-03-28T06:00:37.565Z,11.75
2023-03-28T06:03:09.056Z,11.68
2023-03-28T06:05:46.481Z,12.07
2023-03-28T06:08:16.196Z,19.38
2023-03-28T06:10:46.001Z,16.50
2023-03-28T06:13:15.629Z,25.45
2023-03-28T06:15:45.548Z,63.35
2023-03-28T06:18:15.284Z,40.63
2023-03-28T06:20:45.117Z,43.47
2023-03-28T06:23:14.744Z,38.65
2023-03-28T06:25:44.508Z,34.92
2023-03-28T06:28:14.180Z,47.22
2023-03-28T06:30:43.898Z,34.75
2023-03-28T06:33:13.582Z,41.90
2023-03-28T06:35:43.388Z,34.75
2023-03-28T06:38:13.292Z,37.78
2023-03-28T06:40:43.106Z,36.40
2023-03-28T06:43:12.835Z,39.33
2023-03-28T06:45:43.251Z,34.85
2023-03-28T06:48:12.975Z,32.53
2023-03-28T06:50:42.684Z,37.38
2023-03-28T06:53:12.353Z,28.60
2023-03-28T06:55:42.813Z,26.63
2023-03-28T06:58:12.672Z,27.48
2023-03-28T07:00:42.832Z,33.85
2023-03-28T07:03:12.654Z,31.30
2023-03-28T07:05:43.216Z,28.65
2023-03-28T07:08:14.262Z,27.85
2023-03-28T07:10:44.242Z,26.80
2023-03-28T07:13:13.927Z,25.27
2023-03-28T07:15:43.639Z,28.48
2023-03-28T07:18:13.344Z,32.47
2023-03-28T07:21:01.579Z,25.40
2023-03-28T07:23:33.453Z,21.52
2023-03-28T07:26:03.126Z,23.08
2023-03-28T07:28:32.809Z,27.08
2023-03-28T07:31:06.713Z,31.17
2023-03-28T07:33:38.014Z,28.77
2023-03-28T07:36:18.078Z,25.42
2023-03-28T07:38:49.285Z,23.38
2023-03-28T07:41:19.505Z,23.33
2023-03-28T07:43:49.145Z,23.45
2023-03-28T07:46:18.868Z,27.55
2023-03-28T07:48:48.495Z,20.40
2023-03-28T07:51:18.172Z,22.90
2023-03-28T07:53:47.841Z,26.17
2023-03-28T07:56:17.476Z,26.92
2023-03-28T07:58:47.650Z,26.90
2023-03-28T08:01:20.259Z,23.10
2023-03-28T08:03:50.053Z,31.15
2023-03-28T08:06:31.626Z,25.60
2023-03-28T08:09:02.308Z,25.27
2023-03-28T08:11:32.105Z,22.73
2023-03-28T08:14:01.755Z,24.67
2023-03-28T08:16:31.906Z,29.70
2023-03-28T08:19:10.554Z,21.70
2023-03-28T08:21:40.722Z,23.05
2023-03-28T08:24:19.639Z,28.65
2023-03-28T08:26:52.226Z,24.33
2023-03-28T08:29:24.790Z,24.30
2023-03-28T08:31:54.479Z,21.33
2023-03-28T08:34:24.150Z,28.65
2023-03-28T08:36:54.529Z,26.88
2023-03-28T08:39:24.863Z,24.13
2023-03-28T08:42:00.206Z,21.35
2023-03-28T08:44:51.062Z,25.73
2023-03-28T08:47:38.869Z,19.10
2023-03-28T08:50:19.818Z,21.52
2023-03-28T08:52:49.601Z,23.42
2023-03-28T08:55:19.280Z,25.42
2023-03-28T08:57:48.944Z,27.85
2023-03-28T09:00:24.049Z,25.58
2023-03-28T09:02:53.872Z,22.08
2023-03-28T09:05:37.253Z,20.50
2023-03-28T09:08:20.575Z,25.35
2023-03-28T09:11:31.206Z,21.58
2023-03-28T09:14:23.830Z,19.55
2023-03-28T09:17:15.053Z,22.42
2023-03-28T09:20:14.910Z,18.83
2023-03-28T09:23:09.856Z,22.60
2023-03-28T09:25:44.094Z,23.88
2023-03-28T09:28:35.083Z,20.25
2023-03-28T09:31:04.800Z,20.77
2023-03-28T09:33:42.209Z,21.33
2023-03-28T09:36:48.234Z,22.25
2023-03-28T09:39:35.507Z,19.70
2023-03-28T09:42:11.674Z,20.63
2023-03-28T09:44:55.187Z,22.65
2023-03-28T09:47:24.955Z,22.60
2023-03-28T09:50:05.567Z,23.60
2023-03-28T09:52:39.743Z,19.50
2023-03-28T09:55:18.903Z,28.08
2023-03-28T09:58:10.595Z,23.00
2023-03-28T10:00:52.794Z,19.95
2023-03-28T10:03:36.562Z,20.60
2023-03-28T10:06:33.249Z,22.73
2023-03-28T10:09:23.475Z,21.27
2023-03-28T10:12:01.297Z,18.80
2023-03-28T10:14:36.296Z,18.80
2023-03-28T10:17:18.311Z,18.92
2023-03-28T10:19:48.744Z,20.20
2023-03-28T10:22:25.302Z,19.23
2023-03-28T10:24:54.954Z,20.40
2023-03-28T10:27:26.712Z,18.58
2023-03-28T10:29:58.357Z,21.77
2023-03-28T10:32:31.800Z,17.15
2023-03-28T10:35:26.640Z,19.80
2023-03-28T10:38:00.404Z,17.35
2023-03-28T10:40:33.899Z,19.40
2023-03-28T10:43:12.989Z,18.98
2023-03-28T10:45:52.575Z,18.50
2023-03-28T10:48:31.517Z,19.85
2023-03-28T10:51:09.842Z,19.20
2023-03-28T10:54:17.405Z,18.10
2023-03-28T10:57:01.311Z,20.50
2023-03-28T10:59:52.103Z,18.85
2023-03-28T11:02:44.619Z,18.55
2023-03-28T11:05:41.736Z,21.02
2023-03-28T11:08:38.031Z,20.70
2023-03-28T11:11:25.525Z,19.92
2023-03-28T11:14:02.848Z,21.38
2023-03-28T11:16:42.499Z,19.17
2023-03-28T11:19:56.065Z,18.98
2023-03-28T11:23:04.600Z,21.33
2023-03-28T11:25:45.515Z,22.10
2023-03-28T11:28:32.878Z,20.17
2023-03-28T11:31:17.069Z,20.20
2023-03-28T11:34:06.657Z,19.52
2023-03-28T11:36:58.549Z,19.65
2023-03-28T11:39:40.012Z,24.10
2023-03-28T11:42:26.032Z,19.65
2023-03-28T11:48:40.030Z,18.17
2023-03-28T11:51:30.797Z,18.95
2023-03-28T11:54:50.227Z,20.52
2023-03-28T11:57:41.315Z,20.92
2023-03-28T12:00:34.222Z,20.38
2023-03-28T12:03:20.344Z,21.25
2023-03-28T12:06:13.612Z,20.63
2023-03-28T12:08:50.683Z,19.13
2023-03-28T12:11:43.543Z,18.13
2023-03-28T12:14:23.217Z,20.00
2023-03-28T12:17:03.857Z,18.95
2023-03-28T12:19:48.677Z,19.05
2023-03-28T12:22:37.000Z,20.92
2023-03-28T12:25:39.566Z,19.77
2023-03-28T12:28:37.331Z,17.83
2023-03-28T12:31:23.629Z,19.10
2023-03-28T12:34:00.160Z,20.88
2023-03-28T12:37:06.484Z,21.60
2023-03-28T12:40:14.510Z,22.05
2023-03-28T12:42:52.395Z,16.60
2023-03-28T12:45:44.514Z,19.38
2023-03-28T12:48:46.751Z,16.55
2023-03-28T12:51:35.856Z,19.73
2023-03-28T12:54:41.863Z,20.33
2023-03-28T12:57:34.291Z,16.47
2023-03-28T13:00:30.719Z,19.00
2023-03-28T13:03:36.360Z,17.92
2023-03-28T13:06:26.476Z,22.50
2023-03-28T13:09:25.443Z,18.60
2023-03-28T13:12:31.819Z,19.48
2023-03-28T13:15:19.713Z,18.23
2023-03-28T13:18:34.383Z,17.00
2023-03-28T13:21:10.682Z,21.42
2023-03-28T13:23:57.502Z,16.50
2023-03-28T13:27:06.099Z,20.40
2023-03-28T13:30:12.298Z,18.52
2023-03-28T13:32:54.744Z,15.48
2023-03-28T13:36:22.292Z,19.30
2023-03-28T13:39:12.021Z,18.23
2023-03-28T13:41:53.279Z,16.85
2023-03-28T13:44:49.194Z,23.67
2023-03-28T13:47:38.837Z,18.90
2023-03-28T13:50:36.278Z,18.05
2023-03-28T13:53:16.445Z,19.63
2023-03-28T13:55:56.353Z,15.45
2023-03-28T13:58:30.836Z,19.63
2023-03-28T14:01:26.060Z,18.70
2023-03-28T14:04:05.644Z,16.08
2023-03-28T14:06:45.443Z,16.80
2023-03-28T14:09:34.884Z,18.33
2023-03-28T14:12:16.974Z,18.63
2023-03-28T14:14:56.685Z,17.77
2023-03-28T14:17:40.487Z,18.50
2023-03-28T14:20:25.295Z,16.00
2023-03-28T14:23:07.890Z,18.23
2023-03-28T14:25:42.809Z,22.02
2023-03-28T14:28:20.098Z,16.67
2023-03-28T14:31:11.883Z,19.20
2023-03-28T14:33:53.735Z,16.65
2023-03-28T14:36:32.617Z,16.50
2023-03-28T14:39:24.649Z,16.17
2023-03-28T14:42:03.246Z,18.98
2023-03-28T14:44:47.845Z,16.45
2023-03-28T14:47:36.840Z,16.45
2023-03-28T14:50:19.876Z,17.45
2023-03-28T14:52:54.940Z,21.00
2023-03-28T14:55:30.470Z,16.35
2023-03-28T15:01:06.247Z,17.30
2023-03-28T15:03:56.003Z,19.08
2023-03-28T15:06:33.980Z,16.50
2023-03-28T15:09:23.058Z,15.23
2023-03-28T15:11:57.739Z,21.23
2023-03-28T15:14:39.781Z,20.73
2023-03-28T15:17:25.566Z,17.17
2023-03-28T15:20:01.447Z,19.65
2023-03-28T15:22:38.493Z,16.38
2023-03-28T15:25:21.860Z,14.55
2023-03-28T15:28:08.325Z,20.63
2023-03-28T15:30:52.398Z,18.70
2023-03-28T15:33:37.700Z,17.45
2023-03-28T15:36:35.045Z,16.48
2023-03-28T15:39:34.716Z,19.60
2023-03-28T15:42:11.826Z,19.20
2023-03-28T15:44:56.338Z,17.65
2023-03-28T15:47:46.804Z,15.43
2023-03-28T15:50:50.512Z,17.35
2023-03-28T15:53:33.027Z,19.25
2023-03-28T15:56:40.290Z,17.38
2023-03-28T15:59:23.399Z,16.83
2023-03-28T16:02:36.025Z,16.60
2023-03-28T16:05:16.095Z,18.63
2023-03-28T16:07:52.220Z,16.83
2023-03-28T16:10:32.430Z,15.23
2023-03-28T16:13:15.557Z,18.73
2023-03-28T16:16:00.792Z,17.25
2023-03-28T16:18:35.927Z,17.98
2023-03-28T16:21:19.680Z,20.23
2023-03-28T16:23:54.284Z,16.77
2023-03-28T16:26:33.043Z,16.00
2023-03-28T16:29:17.116Z,19.33
2023-03-28T16:31:51.992Z,17.73
2023-03-28T16:34:27.129Z,16.10
2023-03-28T16:37:10.955Z,21.40
2023-03-28T16:39:49.053Z,19.90
2023-03-28T16:42:31.840Z,16.90
2023-03-28T16:45:09.003Z,17.48
2023-03-28T16:47:47.591Z,19.42
2023-03-28T16:50:26.408Z,18.65
2023-03-28T16:53:05.128Z,16.02
2023-03-28T16:55:39.983Z,17.90
2023-03-28T16:58:18.699Z,14.75
2023-03-28T17:00:57.750Z,16.50
2023-03-28T17:03:46.157Z,20.42
2023-03-28T17:06:26.249Z,20.08
2023-03-28T17:09:03.828Z,16.65
2023-03-28T17:11:41.571Z,20.67
2023-03-28T17:14:15.377Z,17.88
2023-03-28T17:16:51.205Z,18.15
2023-03-28T17:19:25.722Z,16.95
2023-03-28T17:22:01.377Z,16.67
2023-03-28T17:24:35.557Z,17.90
2023-03-28T17:27:13.539Z,19.70
2023-03-28T17:29:51.290Z,19.60
2023-03-28T17:32:28.592Z,21.38
2023-03-28T17:35:10.750Z,18.33
2023-03-28T17:38:28.901Z,18.15
2023-03-28T17:41:27.161Z,19.38
2023-03-28T17:44:01.430Z,18.45
2023-03-28T17:46:37.355Z,21.08
2023-03-28T17:49:13.262Z,19.58
2023-03-28T17:51:50.115Z,19.15
2023-03-28T17:54:21.985Z,20.02
2023-03-28T17:56:54.851Z,20.65
2023-03-28T17:59:25.815Z,22.40
2023-03-28T18:01:56.285Z,18.50
2023-03-28T18:04:25.987Z,19.02
2023-03-28T18:06:55.979Z,21.63
2023-03-28T18:09:25.924Z,18.80
2023-03-28T18:11:55.555Z,18.98
2023-03-28T18:14:25.176Z,18.65
2023-03-28T18:16:56.793Z,18.88
2023-03-28T18:19:26.463Z,20.35
2023-03-28T18:21:56.299Z,19.90
2023-03-28T18:24:25.896Z,21.52
2023-03-28T18:26:55.735Z,19.23
2023-03-28T18:29:25.394Z,20.13
2023-03-28T18:31:55.147Z,17.40
2023-03-28T18:34:24.860Z,19.38
2023-03-28T18:36:57.060Z,20.55
2023-03-28T18:39:27.413Z,20.25
2023-03-28T18:41:57.160Z,18.65
2023-03-28T18:44:26.818Z,18.23
2023-03-28T18:46:56.933Z,18.30
2023-03-28T18:49:26.754Z,21.48
2023-03-28T18:51:56.798Z,19.65
2023-03-28T18:54:26.506Z,22.13
2023-03-28T18:56:56.137Z,19.45
2023-03-28T18:59:25.911Z,24.55
2023-03-28T19:01:59.923Z,19.52
2023-03-28T19:04:30.920Z,21.27
2023-03-28T19:07:00.584Z,17.75
2023-03-28T19:09:30.303Z,22.27
2023-03-28T19:12:00.130Z,18.48
2023-03-28T19:14:29.934Z,22.73
2023-03-28T19:16:59.674Z,19.98
2023-03-28T19:19:29.571Z,19.45
2023-03-28T19:21:59.194Z,18.40
2023-03-28T19:24:28.963Z,19.30
2023-03-28T19:26:59.474Z,22.05
2023-03-28T19:29:30.095Z,18.65
2023-03-28T19:31:59.779Z,18.70
2023-03-28T19:34:30.427Z,17.98
2023-03-28T19:37:00.217Z,22.83
2023-03-28T19:39:29.916Z,22.33
2023-03-28T19:41:59.656Z,21.60
2023-03-28T19:45:12.059Z,18.67
2023-03-28T19:48:01.613Z,20.45
2023-03-28T19:50:35.081Z,21.73
2023-03-28T19:53:05.077Z,19.23
2023-03-28T19:55:34.976Z,20.83
2023-03-28T19:58:06.536Z,22.95
2023-03-28T20:00:36.299Z,21.67
2023-03-28T20:03:06.065Z,21.88
2023-03-28T20:05:35.860Z,20.73
2023-03-28T20:08:05.464Z,25.38
2023-03-28T20:10:35.072Z,17.98
2023-03-28T20:13:04.679Z,20.33
2023-03-28T20:15:35.190Z,22.35
2023-03-28T20:18:05.293Z,22.38
2023-03-28T20:20:34.933Z,23.80
2023-03-28T20:23:05.599Z,21.52
2023-03-28T20:25:35.772Z,19.88
2023-03-28T20:28:05.878Z,21.98
2023-03-28T20:30:35.507Z,22.58
2023-03-28T20:33:05.714Z,24.95
2023-03-28T20:35:35.631Z,23.30
2023-03-28T20:38:05.390Z,23.45
2023-03-28T20:40:35.031Z,23.88
2023-03-28T20:43:04.713Z,23.15
2023-03-28T20:45:35.472Z,20.17
2023-03-28T20:48:07.784Z,22.17
2023-03-28T20:50:39.075Z,24.38
2023-03-28T20:53:09.484Z,26.58
2023-03-28T20:55:39.356Z,24.77
2023-03-28T20:58:10.352Z,26.25
2023-03-28T21:00:41.376Z,23.38
2023-03-28T21:03:12.832Z,25.70
2023-03-28T21:05:46.232Z,26.05
2023-03-28T21:08:16.165Z,21.80
2023-03-28T21:10:45.808Z,19.55
2023-03-28T21:13:15.486Z,17.50
2023-03-28T21:15:45.357Z,18.10
2023-03-28T21:18:15.581Z,17.50
2023-03-28T21:20:46.255Z,16.73
2023-03-28T21:23:16.059Z,16.33
2023-03-28T21:25:46.906Z,15.60
2023-03-28T21:28:17.748Z,18.42
2023-03-28T21:31:01.298Z,15.43
2023-03-28T21:33:31.625Z,18.25
2023-03-28T21:36:01.482Z,17.70
2023-03-28T21:38:31.113Z,19.15
2023-03-28T21:41:01.078Z,17.58
2023-03-28T21:43:31.031Z,20.58
2023-03-28T21:46:00.667Z,19.25
2023-03-28T21:48:30.958Z,19.30
2023-03-28T21:51:01.369Z,21.20
2023-03-28T21:53:33.150Z,22.27
2023-03-28T21:56:02.760Z,22.90
2023-03-28T21:58:34.218Z,21.05
2023-03-28T22:01:04.607Z,23.80
2023-03-28T22:03:37.332Z,23.27
2023-03-28T22:06:07.337Z,23.55
2023-03-28T22:08:37.095Z,20.52
2023-03-28T22:11:16.057Z,23.77
2023-03-28T22:13:46.398Z,25.92
2023-03-28T22:16:16.939Z,26.88
2023-03-28T22:18:51.162Z,22.55
2023-03-28T22:21:20.785Z,23.65
2023-03-28T22:23:50.414Z,22.00
2023-03-28T22:26:20.130Z,24.98
2023-03-28T22:28:50.759Z,26.05
2023-03-28T22:31:20.494Z,26.83
2023-03-28T22:33:50.245Z,24.23
2023-03-28T22:36:20.054Z,27.02
2023-03-28T22:38:49.792Z,28.15
2023-03-28T22:41:21.896Z,30.95
2023-03-28T22:43:51.768Z,27.08
2023-03-28T22:46:22.785Z,23.95
2023-03-28T22:48:55.744Z,26.92
2023-03-28T22:51:26.700Z,28.17
2023-03-28T22:54:00.592Z,27.20
2023-03-28T22:56:30.463Z,25.95
2023-03-28T22:59:02.612Z,22.83
2023-03-28T23:01:32.425Z,26.55
2023-03-28T23:04:02.161Z,25.17
2023-03-28T23:06:33.113Z,25.48
2023-03-28T23:09:02.855Z,24.67
2023-03-28T23:11:32.590Z,25.60
2023-03-28T23:14:05.351Z,24.45
2023-03-28T23:16:35.212Z,29.20
2023-03-28T23:19:05.390Z,30.83
2023-03-28T23:21:37.113Z,29.10
2023-03-28T23:24:07.276Z,27.88
2023-03-28T23:26:37.264Z,23.92
2023-03-28T23:29:07.166Z,25.88
2023-03-28T23:31:39.585Z,26.20
2023-03-28T23:34:09.351Z,25.58
2023-03-28T23:36:42.747Z,22.75
2023-03-28T23:39:12.636Z,30.45
2023-03-28T23:41:43.025Z,26.90
2023-03-28T23:44:13.183Z,25.38
2023-03-28T23:46:42.906Z,27.55
2023-03-28T23:49:15.681Z,27.02
2023-03-28T23:51:45.703Z,26.70
2023-03-28T23:54:17.202Z,28.10
2023-03-28T23:56:48.319Z,28.80
2023-03-28T23:59:20.727Z,28.10
